Time;durP1;ratioP1;P1;durP2;ratioP2;P2;SDS_P1;SDS_P2;PMS_P1;PMS_P2;Temp;Humidity;BMP_temperature;BMP_pressure;BME280_temperature;BME280_humidity;BME280_pressure;Samples;Min_cycle;Max_cycle;Signal;HPM_P1;HPM_P2
2023/06/20 00:00:51;;;;;;;7.73;6.30;;;;;24.30;100089.00;;;;2082727;28;20241;-53
2023/06/20 00:01:51;;;;;;;6.53;5.90;;;;;24.30;100089.00;;;;2076305;28;20271;-53
2023/06/20 00:02:52;;;;;;;6.17;5.57;;;;;24.30;100099.00;;;;2078655;28;20218;-53
2023/06/20 00:03:52;;;;;;;6.40;5.50;;;;;24.30;100090.00;;;;2077327;28;20208;-53
2023/06/20 00:04:53;;;;;;;8.43;6.17;;;;;24.30;100086.00;;;;2063798;28;20335;-53
2023/06/20 00:05:53;;;;;;;6.10;5.50;;;;;24.30;100086.00;;;;2072346;28;20364;-53
2023/06/20 00:06:53;;;;;;;6.07;5.33;;;;;24.30;100091.00;;;;2078629;28;20300;-53
2023/06/20 00:07:54;;;;;;;6.20;5.27;;;;;23.90;100070.00;;;;2072235;28;20206;-52
2023/06/20 00:08:54;;;;;;;7.50;6.47;;;;;24.30;100086.00;;;;2070854;28;20218;-53
2023/06/20 00:09:54;;;;;;;7.03;5.93;;;;;24.40;100088.00;;;;2074698;28;20633;-52
2023/06/20 00:10:55;;;;;;;6.77;5.27;;;;;24.40;100084.00;;;;2078570;28;20213;-53
2023/06/20 00:11:55;;;;;;;6.47;5.97;;;;;24.40;100083.00;;;;2083458;28;20209;-54
2023/06/20 00:12:55;;;;;;;6.50;5.57;;;;;24.40;100094.00;;;;2085063;28;20259;-54
2023/06/20 00:13:57;;;;;;;6.63;6.10;;;;;24.40;100096.00;;;;2083406;28;20228;-53
2023/06/20 00:14:57;;;;;;;6.72;5.88;;;;;24.30;100088.00;;;;2074474;28;20213;-53
2023/06/20 00:15:58;;;;;;;7.40;6.40;;;;;24.40;100087.00;;;;2081836;28;20220;-53
2023/06/20 00:16:59;;;;;;;7.27;6.57;;;;;24.40;100089.00;;;;2082079;28;20220;-53
2023/06/20 00:18:02;;;;;;;6.40;5.78;;;;;24.40;100086.00;;;;2077431;28;20213;-53
2023/06/20 00:19:04;;;;;;;7.03;6.30;;;;;24.30;100092.00;;;;2078837;28;20220;-53
2023/06/20 00:20:08;;;;;;;6.30;5.70;;;;;24.30;100083.00;;;;2071598;28;20553;-53
2023/06/20 00:21:09;;;;;;;8.40;5.97;;;;;24.30;100094.00;;;;2071425;28;20254;-53
2023/06/20 00:22:09;;;;;;;6.50;5.90;;;;;24.30;100089.00;;;;2071451;28;20222;-53
2023/06/20 00:23:09;;;;;;;7.60;5.93;;;;;24.30;100090.00;;;;2081360;28;20229;-53
2023/06/20 00:24:10;;;;;;;6.33;5.70;;;;;24.30;100086.00;;;;2084821;28;20213;-53
2023/06/20 00:25:10;;;;;;;6.67;5.97;;;;;24.30;100074.00;;;;2070392;28;20922;-53
2023/06/20 00:26:10;;;;;;;6.57;5.97;;;;;24.30;100081.00;;;;2079930;28;20715;-53
2023/06/20 00:27:11;;;;;;;6.90;6.03;;;;;24.30;100083.00;;;;2085357;28;20239;-53
2023/06/20 00:28:14;;;;;;;8.43;6.27;;;;;24.30;100084.00;;;;2084459;28;20217;-53
2023/06/20 00:29:14;;;;;;;6.10;5.60;;;;;24.30;100103.00;;;;2085724;28;20213;-53
2023/06/20 00:30:15;;;;;;;6.03;5.53;;;;;24.30;100078.00;;;;2074870;28;20267;-53
2023/06/20 00:31:15;;;;;;;7.72;6.50;;;;;24.30;100079.00;;;;2077238;28;20217;-53
2023/06/20 00:32:15;;;;;;;6.33;4.93;;;;;24.30;100079.00;;;;2076833;28;20765;-53
2023/06/20 00:33:18;;;;;;;6.97;6.30;;;;;24.30;100086.00;;;;2081167;28;20220;-53
2023/06/20 00:34:19;;;;;;;8.07;5.68;;;;;24.30;100082.00;;;;2078911;28;20897;-53
2023/06/20 00:35:19;;;;;;;6.10;5.60;;;;;24.30;100079.00;;;;2072574;28;20223;-53
2023/06/20 00:36:26;;;;;;;5.50;5.00;;;;;24.30;100076.00;;;;2084624;28;20224;-53
2023/06/20 00:37:26;;;;;;;6.50;5.95;;;;;24.30;100079.00;;;;2077477;28;20890;-54
2023/06/20 00:38:29;;;;;;;7.13;5.80;;;;;24.30;100069.00;;;;2069011;28;20221;-52
2023/06/20 00:39:29;;;;;;;7.47;5.10;;;;;24.30;100077.00;;;;2065698;28;20232;-53
2023/06/20 00:40:30;;;;;;;7.10;5.90;;;;;24.30;100078.00;;;;2083489;28;20723;-54
2023/06/20 00:41:31;;;;;;;6.40;5.80;;;;;24.30;100070.00;;;;2081095;28;20578;-53
2023/06/20 00:42:31;;;;;;;6.38;5.72;;;;;24.30;100079.00;;;;2079768;28;21120;-53
2023/06/20 00:43:32;;;;;;;5.87;5.37;;;;;24.10;100078.00;;;;2068536;28;20207;-52
2023/06/20 00:44:32;;;;;;;6.63;5.80;;;;;24.30;100077.00;;;;2064895;28;20217;-53
2023/06/20 00:45:33;;;;;;;6.50;5.90;;;;;24.30;100074.00;;;;2085413;28;20213;-53
2023/06/20 00:46:40;;;;;;;7.10;5.80;;;;;24.30;100061.00;;;;2072964;28;20205;-53
2023/06/20 00:47:40;;;;;;;6.32;5.65;;;;;24.30;100074.00;;;;2067601;28;20246;-52
2023/06/20 00:48:41;;;;;;;5.90;5.40;;;;;24.30;100074.00;;;;2068695;28;20214;-53
2023/06/20 00:49:41;;;;;;;6.60;6.03;;;;;24.30;100079.00;;;;2054117;28;20226;-54
2023/06/20 00:50:41;;;;;;;7.30;6.60;;;;;24.30;100077.00;;;;2069323;28;20237;-52
2023/06/20 00:51:42;;;;;;;8.43;5.67;;;;;24.30;100069.00;;;;2077885;28;20210;-53
2023/06/20 00:52:42;;;;;;;6.10;5.60;;;;;24.30;100073.00;;;;2083024;28;20304;-53
2023/06/20 00:53:42;;;;;;;6.00;5.33;;;;;24.30;100061.00;;;;2070018;28;20289;-53
2023/06/20 00:54:44;;;;;;;7.30;5.43;;;;;24.30;100068.00;;;;2065815;28;20217;-53
2023/06/20 00:55:44;;;;;;;6.00;5.38;;;;;24.30;100053.00;;;;2076058;28;20213;-53
2023/06/20 00:56:44;;;;;;;6.67;5.97;;;;;24.30;100069.00;;;;2073728;28;20209;-53
2023/06/20 00:57:45;;;;;;;6.60;5.90;;;;;24.30;100066.00;;;;2072952;28;20216;-52
2023/06/20 00:58:45;;;;;;;6.60;5.90;;;;;24.30;100074.00;;;;2075362;28;20241;-52
2023/06/20 00:59:49;;;;;;;6.70;5.60;;;;;24.30;100084.00;;;;2066580;28;20215;-52
2023/06/20 01:00:49;;;;;;;6.22;5.65;;;;;24.30;100056.00;;;;2082460;28;20811;-53
2023/06/20 01:01:50;;;;;;;7.10;6.43;;;;;24.30;100063.00;;;;2083263;28;20221;-53
2023/06/20 01:02:52;;;;;;;7.30;6.60;;;;;24.30;100060.00;;;;2080634;28;20209;-53
2023/06/20 01:03:52;;;;;;;7.97;6.18;;;;;24.30;100059.00;;;;2083728;28;20225;-53
2023/06/20 01:04:53;;;;;;;6.10;5.60;;;;;24.30;100061.00;;;;2073637;28;20208;-53
2023/06/20 01:06:20;;;;;;;6.40;5.77;;;;;24.30;100051.00;;;;2073532;28;20596;-53
2023/06/20 01:07:28;;;;;;;5.95;5.45;;;;;24.30;100057.00;;;;2069368;28;20228;-52
2023/06/20 01:08:47;;;;;;;6.83;5.37;;;;;24.30;100057.00;;;;2061932;28;20231;-53
2023/06/20 01:09:53;;;;;;;6.18;5.68;;;;;24.30;100053.00;;;;2056531;28;20476;-53
2023/06/20 01:10:56;;;;;;;5.93;5.43;;;;;24.30;100058.00;;;;2064658;28;20222;-53
2023/06/20 01:12:16;;;;;;;9.93;6.00;;;;;24.30;99983.00;;;;2061259;28;20226;-54
2023/06/20 01:13:32;;;;;;;6.55;5.85;;;;;24.30;100054.00;;;;2066360;28;20253;-53
2023/06/20 01:14:46;;;;;;;6.30;5.80;;;;;24.30;100056.00;;;;2061472;28;20280;-53
2023/06/20 01:15:52;;;;;;;6.13;5.53;;;;;24.30;100061.00;;;;2061782;28;20226;-52
2023/06/20 01:16:59;;;;;;;7.50;5.35;;;;;24.30;100058.00;;;;2068235;28;20314;-53
2023/06/20 01:18:18;;;;;;;6.63;5.53;;;;;24.30;100062.00;;;;2071822;28;20217;-53
2023/06/20 01:19:47;;;;;;;6.82;6.22;;;;;24.20;100062.00;;;;2060288;28;20241;-53
2023/06/20 01:20:50;;;;;;;8.05;5.38;;;;;24.30;100049.00;;;;2074561;28;20626;-53
2023/06/20 01:21:52;;;;;;;6.95;5.80;;;;;24.30;100051.00;;;;2074125;28;20720;-53
2023/06/20 01:23:37;;;;;;;6.30;5.80;;;;;24.30;100055.00;;;;2067653;28;20309;-53
2023/06/20 01:24:46;;;;;;;5.40;4.90;;;;;24.30;100060.00;;;;2063768;28;20279;-53
2023/06/20 01:25:47;;;;;;;5.97;5.38;;;;;24.20;100048.00;;;;2076203;28;20602;-52
2023/06/20 01:26:58;;;;;;;5.93;5.40;;;;;24.30;100048.00;;;;2074568;28;20753;-53
2023/06/20 01:28:04;;;;;;;6.40;5.80;;;;;24.30;100053.00;;;;2071518;28;20292;-53
2023/06/20 01:29:09;;;;;;;6.30;5.70;;;;;24.30;100056.00;;;;2071577;28;20202;-53
2023/06/20 01:30:12;;;;;;;6.22;5.60;;;;;24.30;100045.00;;;;2058991;28;20218;-53
2023/06/20 01:31:15;;;;;;;6.32;5.82;;;;;24.20;100060.00;;;;2072475;28;20224;-53
2023/06/20 01:32:16;;;;;;;6.60;6.00;;;;;24.20;100051.00;;;;2056803;28;20226;-52
2023/06/20 01:33:22;;;;;;;5.95;5.35;;;;;24.20;100048.00;;;;2055406;28;20251;-53
2023/06/20 01:34:27;;;;;;;6.22;5.63;;;;;24.20;100045.00;;;;2056564;28;20222;-54
2023/06/20 01:35:27;;;;;;;6.15;5.28;;;;;24.20;100049.00;;;;2060378;28;21201;-53
2023/06/20 01:36:32;;;;;;;6.40;5.80;;;;;24.20;100047.00;;;;2071317;28;20218;-53
2023/06/20 01:37:33;;;;;;;6.50;5.28;;;;;24.30;99936.00;;;;2074541;28;20698;-53
2023/06/20 01:38:33;;;;;;;7.30;5.63;;;;;24.30;100038.00;;;;2054520;28;20251;-53
2023/06/20 01:39:36;;;;;;;6.50;5.57;;;;;24.30;100045.00;;;;2049212;28;20226;-53
2023/06/20 01:40:37;;;;;;;6.15;5.50;;;;;24.30;100042.00;;;;2062862;28;20733;-52
2023/06/20 01:41:38;;;;;;;6.53;5.83;;;;;24.20;100053.00;;;;2063876;28;20219;-53
2023/06/20 01:42:38;;;;;;;7.32;5.82;;;;;24.30;100043.00;;;;2074365;28;20212;-53
2023/06/20 01:43:39;;;;;;;6.27;5.70;;;;;24.20;100051.00;;;;2061219;28;20316;-52
2023/06/20 01:44:39;;;;;;;5.80;5.30;;;;;24.20;100049.00;;;;2057878;28;20214;-53
2023/06/20 01:45:39;;;;;;;7.73;5.97;;;;;24.20;100051.00;;;;2075342;28;20217;-53
2023/06/20 01:46:40;;;;;;;6.20;5.60;;;;;24.20;100046.00;;;;2065496;28;20256;-52
2023/06/20 01:47:40;;;;;;;6.30;5.80;;;;;24.20;100051.00;;;;2065956;28;20257;-52
2023/06/20 01:48:40;;;;;;;6.50;5.90;;;;;24.20;100055.00;;;;2075246;28;20285;-52
2023/06/20 01:49:41;;;;;;;5.37;4.87;;;;;24.20;100040.00;;;;2053005;28;20221;-53
2023/06/20 01:50:41;;;;;;;5.80;5.20;;;;;24.00;100040.00;;;;2059814;28;20585;-53
2023/06/20 01:51:42;;;;;;;6.30;5.70;;;;;24.20;100040.00;;;;2062744;28;20230;-53
2023/06/20 01:52:42;;;;;;;6.17;5.30;;;;;24.20;100055.00;;;;2053216;28;20299;-53
2023/06/20 01:53:42;;;;;;;6.33;5.73;;;;;24.20;100039.00;;;;2068015;28;20730;-53
2023/06/20 01:54:46;;;;;;;5.70;5.20;;;;;24.20;100055.00;;;;2052123;28;20229;-53
2023/06/20 01:55:47;;;;;;;5.97;5.38;;;;;24.20;100056.00;;;;2059966;28;20622;-53
2023/06/20 01:56:48;;;;;;;6.22;5.60;;;;;24.20;100063.00;;;;2062349;28;20218;-53
2023/06/20 01:57:48;;;;;;;5.87;5.27;;;;;24.20;100057.00;;;;2058072;28;20212;-53
2023/06/20 01:58:48;;;;;;;6.27;5.73;;;;;24.20;100067.00;;;;2060635;28;20335;-53
2023/06/20 01:59:49;;;;;;;6.70;5.63;;;;;24.20;100066.00;;;;2044436;28;20214;-53
2023/06/20 02:00:50;;;;;;;6.10;5.47;;;;;24.20;100078.00;;;;2062055;28;20215;-53
2023/06/20 02:01:50;;;;;;;7.50;4.90;;;;;24.30;100074.00;;;;2064724;28;20541;-53
2023/06/20 02:02:50;;;;;;;6.10;5.50;;;;;24.30;100049.00;;;;2063966;28;20796;-53
2023/06/20 02:03:52;;;;;;;5.87;5.37;;;;;24.20;100053.00;;;;2075796;28;20702;-53
2023/06/20 02:04:56;;;;;;;5.93;5.32;;;;;24.20;100061.00;;;;2048263;28;20566;-54
2023/06/20 02:05:57;;;;;;;5.90;5.35;;;;;24.20;100076.00;;;;2055525;28;20214;-54
2023/06/20 02:06:57;;;;;;;7.10;5.30;;;;;24.20;100082.00;;;;2052020;28;20318;-54
2023/06/20 02:07:58;;;;;;;6.20;4.60;;;;;24.20;100062.00;;;;2063070;28;20782;-54
2023/06/20 02:08:58;;;;;;;6.03;5.43;;;;;24.20;100058.00;;;;2073634;28;20202;-53
2023/06/20 02:09:59;;;;;;;6.00;5.50;;;;;24.20;100056.00;;;;2055189;28;20202;-54
2023/06/20 02:10:59;;;;;;;6.50;5.20;;;;;24.20;100059.00;;;;2067782;28;20293;-54
2023/06/20 02:11:59;;;;;;;6.13;5.53;;;;;24.20;100063.00;;;;2064281;28;21089;-54
2023/06/20 02:12:59;;;;;;;6.20;5.60;;;;;24.20;100054.00;;;;2063400;28;20802;-54
2023/06/20 02:14:00;;;;;;;7.70;5.50;;;;;24.20;100051.00;;;;2071259;28;21152;-54
2023/06/20 02:15:00;;;;;;;7.10;5.97;;;;;24.30;100041.00;;;;2057253;28;20644;-54
2023/06/20 02:16:01;;;;;;;5.90;5.30;;;;;24.20;100052.00;;;;2050477;28;20226;-54
2023/06/20 02:17:01;;;;;;;5.87;5.27;;;;;24.20;100046.00;;;;2057181;28;20222;-53
2023/06/20 02:18:02;;;;;;;5.53;5.13;;;;;24.20;100054.00;;;;2063413;28;20202;-53
2023/06/20 02:19:03;;;;;;;6.28;5.25;;;;;24.20;100048.00;;;;2065312;28;20265;-53
2023/06/20 02:20:04;;;;;;;5.87;5.37;;;;;24.20;100043.00;;;;2065576;28;20697;-54
2023/06/20 02:21:06;;;;;;;5.68;5.15;;;;;24.20;100041.00;;;;2075028;28;20263;-53
2023/06/20 02:22:07;;;;;;;6.53;5.00;;;;;24.20;100067.00;;;;2077114;28;20208;-53
2023/06/20 02:23:09;;;;;;;6.13;5.53;;;;;24.20;100036.00;;;;2058779;28;20286;-54
2023/06/20 02:24:10;;;;;;;6.18;5.43;;;;;24.20;100054.00;;;;2065959;28;20211;-53
2023/06/20 02:25:12;;;;;;;5.50;5.00;;;;;24.20;100050.00;;;;2058095;28;20300;-53
2023/06/20 02:26:14;;;;;;;6.22;5.65;;;;;24.20;100052.00;;;;2066565;28;20288;-54
2023/06/20 02:27:15;;;;;;;6.15;5.55;;;;;24.20;100051.00;;;;2062019;28;20230;-53
2023/06/20 02:28:15;;;;;;;6.72;5.32;;;;;24.20;100047.00;;;;2064520;28;20218;-53
2023/06/20 02:29:16;;;;;;;5.97;5.10;;;;;24.20;100051.00;;;;2058968;28;20603;-53
2023/06/20 02:30:16;;;;;;;6.00;5.40;;;;;24.10;100051.00;;;;2055517;28;20644;-53
2023/06/20 02:31:19;;;;;;;5.93;5.40;;;;;24.20;100049.00;;;;2074123;28;20225;-54
2023/06/20 02:32:19;;;;;;;7.38;5.30;;;;;24.20;100053.00;;;;2066854;28;20225;-53
2023/06/20 02:33:20;;;;;;;6.50;5.90;;;;;24.20;100054.00;;;;2067214;28;20321;-53
2023/06/20 02:34:21;;;;;;;6.10;5.53;;;;;24.20;100056.00;;;;2065130;28;20273;-54
2023/06/20 02:35:21;;;;;;;5.07;4.65;;;;;24.20;99973.00;;;;2062535;28;20265;-53
2023/06/20 02:36:25;;;;;;;6.13;5.23;;;;;24.20;100056.00;;;;2065270;28;20622;-57
2023/06/20 02:37:27;;;;;;;5.25;4.75;;;;;24.20;100062.00;;;;2068012;28;21213;-53
2023/06/20 02:38:27;;;;;;;5.93;5.20;;;;;24.20;100060.00;;;;2055235;28;20231;-54
2023/06/20 02:39:28;;;;;;;6.73;5.70;;;;;24.20;100054.00;;;;2057506;28;20722;-53
2023/06/20 02:40:28;;;;;;;5.27;4.77;;;;;24.20;100054.00;;;;2080142;28;20914;-54
2023/06/20 02:41:28;;;;;;;6.20;5.50;;;;;24.20;100057.00;;;;2078090;28;20656;-53
2023/06/20 02:42:29;;;;;;;5.30;4.80;;;;;24.20;100052.00;;;;2082930;28;20227;-54
2023/06/20 02:43:29;;;;;;;6.07;5.57;;;;;24.20;100036.00;;;;2084489;28;20223;-54
2023/06/20 02:44:29;;;;;;;6.10;5.30;;;;;24.20;100047.00;;;;2065003;28;20233;-54
2023/06/20 02:45:30;;;;;;;5.93;5.43;;;;;24.20;100039.00;;;;2074119;28;20217;-53
2023/06/20 02:46:33;;;;;;;6.77;5.33;;;;;24.10;100050.00;;;;2075521;28;20250;-54
2023/06/20 02:47:47;;;;;;;7.97;5.78;;;;;24.10;100051.00;;;;2071824;28;20718;-53
2023/06/20 02:48:58;;;;;;;5.80;5.20;;;;;24.20;100048.00;;;;2069407;28;20206;-53
2023/06/20 02:50:03;;;;;;;5.47;4.97;;;;;24.20;100049.00;;;;2050075;28;20301;-54
2023/06/20 02:51:06;;;;;;;5.50;5.00;;;;;24.20;100044.00;;;;2064059;28;20642;-53
2023/06/20 02:52:09;;;;;;;6.25;5.65;;;;;24.20;100046.00;;;;2070185;28;20729;-53
2023/06/20 02:53:26;;;;;;;7.40;5.78;;;;;24.20;100060.00;;;;2078505;28;20226;-53
2023/06/20 02:54:33;;;;;;;6.00;5.40;;;;;24.20;100048.00;;;;2055492;28;20305;-54
2023/06/20 02:55:38;;;;;;;5.97;5.18;;;;;24.10;100048.00;;;;2053466;28;20223;-53
2023/06/20 02:56:39;;;;;;;5.68;5.18;;;;;24.20;100074.00;;;;2052874;28;20226;-53
2023/06/20 02:57:40;;;;;;;5.70;5.10;;;;;24.20;100044.00;;;;2063516;28;21036;-53
2023/06/20 02:58:45;;;;;;;5.90;5.40;;;;;24.20;100058.00;;;;2074447;28;21061;-53
2023/06/20 02:59:52;;;;;;;6.13;5.53;;;;;24.20;100033.00;;;;2044936;28;20219;-53
2023/06/20 03:00:53;;;;;;;7.88;5.03;;;;;24.20;100058.00;;;;2067785;28;20226;-54
2023/06/20 03:01:56;;;;;;;5.33;4.83;;;;;24.20;100051.00;;;;2071758;28;20706;-54
2023/06/20 03:03:07;;;;;;;6.43;5.22;;;;;24.10;100051.00;;;;2067931;28;20661;-53
2023/06/20 03:04:08;;;;;;;5.85;5.35;;;;;24.20;100024.00;;;;2072072;28;20674;-53
2023/06/20 03:05:09;;;;;;;5.70;4.93;;;;;24.20;100049.00;;;;2062242;28;20217;-54
2023/06/20 03:06:10;;;;;;;5.97;5.38;;;;;24.20;100047.00;;;;2068986;28;20218;-53
2023/06/20 03:07:10;;;;;;;5.80;4.90;;;;;24.20;100059.00;;;;2063300;28;20207;-53
2023/06/20 03:08:12;;;;;;;6.10;5.47;;;;;24.10;100057.00;;;;2066943;28;20217;-53
2023/06/20 03:09:12;;;;;;;7.60;5.43;;;;;24.10;100051.00;;;;2064625;28;20225;-53
2023/06/20 03:10:13;;;;;;;6.60;5.23;;;;;24.10;100057.00;;;;2052157;28;20222;-53
2023/06/20 03:11:13;;;;;;;7.00;5.40;;;;;24.20;100056.00;;;;2070174;28;20236;-53
2023/06/20 03:12:13;;;;;;;5.63;5.03;;;;;24.20;100074.00;;;;2077630;28;20213;-53
2023/06/20 03:13:16;;;;;;;5.67;5.07;;;;;24.20;100061.00;;;;2071631;28;20229;-53
2023/06/20 03:14:16;;;;;;;5.43;4.85;;;;;24.20;100054.00;;;;2071854;28;20287;-53
2023/06/20 03:15:16;;;;;;;5.37;4.87;;;;;24.10;100046.00;;;;2071912;28;20788;-53
2023/06/20 03:16:17;;;;;;;6.97;5.40;;;;;24.10;99948.00;;;;2082721;28;20741;-53
2023/06/20 03:17:17;;;;;;;6.60;6.00;;;;;24.10;100055.00;;;;2083038;28;20565;-53
2023/06/20 03:18:18;;;;;;;5.63;5.13;;;;;24.10;100059.00;;;;2081746;28;20221;-53
2023/06/20 03:19:18;;;;;;;5.13;4.73;;;;;24.00;100051.00;;;;2068982;28;20218;-53
2023/06/20 03:20:19;;;;;;;6.17;5.17;;;;;24.00;100057.00;;;;2062607;28;20540;-53
2023/06/20 03:21:21;;;;;;;6.60;5.40;;;;;24.00;100054.00;;;;2077708;28;20787;-53
2023/06/20 03:22:21;;;;;;;5.80;5.30;;;;;24.00;100067.00;;;;2081377;28;20228;-53
2023/06/20 03:23:22;;;;;;;6.50;5.40;;;;;24.00;100065.00;;;;2074386;28;20233;-53
2023/06/20 03:24:22;;;;;;;6.00;5.40;;;;;24.00;100060.00;;;;2069802;28;20236;-53
2023/06/20 03:25:22;;;;;;;6.20;5.60;;;;;24.00;100066.00;;;;2080330;28;20223;-53
2023/06/20 03:26:23;;;;;;;6.13;5.53;;;;;24.00;100063.00;;;;2083322;28;20699;-56
2023/06/20 03:27:23;;;;;;;5.80;5.20;;;;;24.00;100061.00;;;;2076915;28;20236;-55
2023/06/20 03:28:24;;;;;;;5.37;4.77;;;;;24.10;100061.00;;;;2078604;28;20303;-54
2023/06/20 03:29:24;;;;;;;5.38;4.90;;;;;24.10;100069.00;;;;2067115;28;20229;-54
2023/06/20 03:30:25;;;;;;;5.43;4.93;;;;;24.00;100070.00;;;;2076622;28;20226;-53
2023/06/20 03:31:26;;;;;;;6.23;5.30;;;;;24.00;100061.00;;;;2076614;28;20236;-53
2023/06/20 03:32:26;;;;;;;6.45;5.40;;;;;24.00;100060.00;;;;2082266;28;20893;-53
2023/06/20 03:33:27;;;;;;;6.20;5.03;;;;;23.90;100064.00;;;;2084225;28;20340;-53
2023/06/20 03:34:27;;;;;;;5.30;4.80;;;;;24.00;100059.00;;;;2073108;28;20225;-53
2023/06/20 03:35:27;;;;;;;5.90;5.20;;;;;24.00;100065.00;;;;2083299;28;20217;-53
2023/06/20 03:36:28;;;;;;;5.47;4.87;;;;;24.00;100064.00;;;;2078834;28;20228;-55
2023/06/20 03:37:28;;;;;;;9.57;5.70;;;;;24.00;100065.00;;;;2083374;28;20221;-55
2023/06/20 03:38:28;;;;;;;5.37;4.87;;;;;23.50;100064.00;;;;2081986;28;20245;-55
2023/06/20 03:39:29;;;;;;;5.73;5.23;;;;;24.00;100061.00;;;;2067484;28;20222;-53
2023/06/20 03:40:29;;;;;;;7.17;5.10;;;;;23.90;100070.00;;;;2083838;28;20225;-54
2023/06/20 03:41:29;;;;;;;5.50;5.00;;;;;23.90;99997.00;;;;2081299;28;20702;-53
2023/06/20 03:42:29;;;;;;;5.17;4.67;;;;;24.00;100073.00;;;;2082250;28;21023;-53
2023/06/20 03:43:30;;;;;;;5.80;5.30;;;;;24.00;100068.00;;;;2083774;28;20646;-53
2023/06/20 03:44:30;;;;;;;5.40;4.60;;;;;24.00;100073.00;;;;2070789;28;20798;-54
2023/06/20 03:45:30;;;;;;;5.73;5.17;;;;;24.00;100077.00;;;;2085763;28;21312;-54
2023/06/20 03:46:31;;;;;;;6.27;4.83;;;;;24.00;100083.00;;;;2080523;28;21018;-53
2023/06/20 03:47:31;;;;;;;5.77;5.13;;;;;24.00;100080.00;;;;2085802;28;20220;-52
2023/06/20 03:48:31;;;;;;;5.27;4.77;;;;;24.00;100080.00;;;;2085461;28;20220;-53
2023/06/20 03:49:32;;;;;;;5.53;5.03;;;;;23.70;100077.00;;;;2065485;28;20210;-54
2023/06/20 03:50:32;;;;;;;6.13;5.40;;;;;23.90;100081.00;;;;2076888;28;20213;-53
2023/06/20 03:51:32;;;;;;;6.13;5.53;;;;;23.90;100082.00;;;;2084461;28;20298;-53
2023/06/20 03:52:33;;;;;;;5.30;4.80;;;;;23.90;100090.00;;;;2084702;28;20219;-53
2023/06/20 03:53:33;;;;;;;5.67;5.07;;;;;23.90;100091.00;;;;2083638;28;20220;-53
2023/06/20 03:54:38;;;;;;;7.40;5.30;;;;;23.90;100094.00;;;;2062699;28;20237;-53
2023/06/20 03:55:39;;;;;;;6.93;4.90;;;;;23.90;100086.00;;;;2069836;28;20202;-53
2023/06/20 03:56:39;;;;;;;8.27;5.17;;;;;23.90;100088.00;;;;2079399;28;20213;-53
2023/06/20 03:57:39;;;;;;;5.40;4.90;;;;;23.90;100092.00;;;;2078082;28;20283;-53
2023/06/20 03:58:40;;;;;;;5.57;5.07;;;;;23.90;100098.00;;;;2080525;28;20213;-53
2023/06/20 03:59:40;;;;;;;6.00;4.63;;;;;23.90;100089.00;;;;2068203;28;20225;-53
2023/06/20 04:00:40;;;;;;;5.10;4.60;;;;;23.90;100088.00;;;;2083873;28;20218;-53
2023/06/20 04:01:41;;;;;;;5.80;5.20;;;;;23.90;100086.00;;;;2078037;28;20221;-53
2023/06/20 04:02:41;;;;;;;6.63;4.93;;;;;23.90;100090.00;;;;2081648;28;20293;-53
2023/06/20 04:03:42;;;;;;;5.70;5.03;;;;;23.90;100086.00;;;;2073219;28;20640;-53
2023/06/20 04:04:49;;;;;;;6.63;4.60;;;;;23.90;100080.00;;;;2064154;28;20271;-53
2023/06/20 04:05:49;;;;;;;5.75;5.15;;;;;23.90;100084.00;;;;2083828;28;20217;-53
2023/06/20 04:06:50;;;;;;;7.40;4.53;;;;;23.80;100079.00;;;;2079721;28;20217;-53
2023/06/20 04:07:50;;;;;;;6.60;5.43;;;;;23.90;100075.00;;;;2085763;28;20304;-53
2023/06/20 04:08:51;;;;;;;5.27;4.70;;;;;23.90;100075.00;;;;2074763;28;20308;-53
2023/06/20 04:09:51;;;;;;;5.63;5.10;;;;;23.90;100073.00;;;;2058866;28;20706;-53
2023/06/20 04:10:51;;;;;;;6.33;4.97;;;;;23.90;100067.00;;;;2079458;28;20257;-53
2023/06/20 04:11:52;;;;;;;4.73;4.33;;;;;23.90;100069.00;;;;2084565;28;20352;-53
2023/06/20 04:12:53;;;;;;;4.90;4.50;;;;;23.90;100075.00;;;;2062518;28;20304;-53
2023/06/20 04:13:53;;;;;;;7.53;5.10;;;;;23.90;100068.00;;;;2064057;28;20968;-53
2023/06/20 04:14:53;;;;;;;5.10;4.60;;;;;23.90;100073.00;;;;2072899;28;20232;-53
2023/06/20 04:15:54;;;;;;;7.20;4.77;;;;;23.90;100062.00;;;;2084775;28;20236;-54
2023/06/20 04:16:54;;;;;;;6.17;4.97;;;;;23.90;100060.00;;;;2076926;28;20210;-53
2023/06/20 04:17:55;;;;;;;7.40;4.90;;;;;23.90;100053.00;;;;2077001;28;20245;-53
2023/06/20 04:18:55;;;;;;;7.20;5.00;;;;;23.90;100057.00;;;;2084804;28;20270;-53
2023/06/20 04:19:55;;;;;;;4.97;4.53;;;;;23.90;100063.00;;;;2072852;28;20220;-53
2023/06/20 04:20:56;;;;;;;6.70;4.57;;;;;23.90;100063.00;;;;2082980;28;20224;-53
2023/06/20 04:21:56;;;;;;;6.20;4.57;;;;;23.90;100064.00;;;;2083789;28;20397;-53
2023/06/20 04:22:56;;;;;;;5.27;4.77;;;;;23.90;100063.00;;;;2082593;28;20210;-53
2023/06/20 04:23:57;;;;;;;6.03;4.57;;;;;23.90;100065.00;;;;2079998;28;20217;-53
2023/06/20 04:24:58;;;;;;;5.18;4.53;;;;;23.90;100054.00;;;;2055463;28;20209;-54
2023/06/20 04:25:58;;;;;;;5.40;4.90;;;;;23.90;100057.00;;;;2075819;28;20697;-54
2023/06/20 04:26:58;;;;;;;4.90;4.33;;;;;23.90;100081.00;;;;2076672;28;20213;-53
2023/06/20 04:27:59;;;;;;;4.67;4.17;;;;;23.90;100056.00;;;;2074758;28;20225;-53
2023/06/20 04:28:59;;;;;;;5.07;4.57;;;;;24.00;100061.00;;;;2082286;28;20202;-53
2023/06/20 04:29:59;;;;;;;5.00;4.50;;;;;23.90;100056.00;;;;2070267;28;20258;-53
2023/06/20 04:31:00;;;;;;;5.13;4.03;;;;;23.90;100069.00;;;;2081614;28;20312;-53
2023/06/20 04:32:00;;;;;;;4.87;4.30;;;;;23.90;100075.00;;;;2077912;28;20216;-53
2023/06/20 04:33:01;;;;;;;6.27;4.80;;;;;23.90;100069.00;;;;2077881;28;20218;-53
2023/06/20 04:34:01;;;;;;;4.90;4.40;;;;;23.80;100069.00;;;;2084505;28;20219;-54
2023/06/20 04:35:01;;;;;;;4.70;4.30;;;;;23.90;100066.00;;;;2072507;28;20217;-53
2023/06/20 04:36:02;;;;;;;5.00;4.50;;;;;23.90;100083.00;;;;2076658;28;20264;-53
2023/06/20 04:37:02;;;;;;;4.70;4.30;;;;;23.90;100061.00;;;;2070807;28;20293;-53
2023/06/20 04:38:03;;;;;;;4.70;4.17;;;;;23.90;100054.00;;;;2080211;28;20258;-53
2023/06/20 04:39:04;;;;;;;5.37;4.87;;;;;23.90;100035.00;;;;2081338;28;20205;-53
2023/06/20 04:40:06;;;;;;;4.53;4.13;;;;;23.90;100058.00;;;;2056118;28;20222;-53
2023/06/20 04:41:07;;;;;;;5.75;4.60;;;;;23.90;100061.00;;;;2073053;28;20509;-53
2023/06/20 04:42:07;;;;;;;5.20;4.23;;;;;23.90;100056.00;;;;2077596;28;20422;-53
2023/06/20 04:43:07;;;;;;;4.60;4.20;;;;;23.90;100063.00;;;;2078147;28;20224;-53
2023/06/20 04:44:08;;;;;;;5.10;4.20;;;;;23.90;100054.00;;;;2081788;28;20994;-53
2023/06/20 04:45:09;;;;;;;4.73;4.23;;;;;23.90;100058.00;;;;2071573;28;20286;-53
2023/06/20 04:46:09;;;;;;;5.27;4.80;;;;;23.90;100059.00;;;;2083962;28;20216;-53
2023/06/20 04:47:09;;;;;;;5.70;4.40;;;;;23.90;100059.00;;;;2083991;28;20468;-53
2023/06/20 04:48:09;;;;;;;4.80;3.90;;;;;23.90;100068.00;;;;2080300;28;20303;-53
2023/06/20 04:49:10;;;;;;;5.33;4.80;;;;;23.90;100073.00;;;;2080787;28;20221;-53
2023/06/20 04:50:10;;;;;;;4.97;3.97;;;;;23.90;100080.00;;;;2071653;28;20227;-53
2023/06/20 04:51:10;;;;;;;4.40;3.93;;;;;23.90;100087.00;;;;2085675;28;20209;-53
2023/06/20 04:52:11;;;;;;;7.57;4.93;;;;;23.90;100089.00;;;;2079383;28;20213;-53
2023/06/20 04:53:11;;;;;;;4.73;4.30;;;;;23.90;100097.00;;;;2077805;28;20698;-53
2023/06/20 04:54:12;;;;;;;4.63;4.10;;;;;23.80;100081.00;;;;2080812;28;20628;-53
2023/06/20 04:55:12;;;;;;;4.20;3.80;;;;;23.90;100091.00;;;;2075548;28;21092;-53
2023/06/20 04:56:15;;;;;;;5.00;4.27;;;;;23.90;100091.00;;;;2081007;28;20607;-53
2023/06/20 04:57:17;;;;;;;4.82;4.32;;;;;23.90;100096.00;;;;2085193;28;20225;-53
2023/06/20 04:58:17;;;;;;;5.88;5.05;;;;;23.90;100091.00;;;;2085058;28;20227;-53
2023/06/20 04:59:18;;;;;;;4.83;4.33;;;;;23.90;100099.00;;;;2067520;28;20285;-53
2023/06/20 05:00:18;;;;;;;5.20;4.47;;;;;23.90;100091.00;;;;2058205;28;20702;-53
2023/06/20 05:01:18;;;;;;;5.10;4.60;;;;;23.90;100096.00;;;;2081453;28;20566;-53
2023/06/20 05:02:19;;;;;;;4.50;4.10;;;;;23.70;100086.00;;;;2080361;28;20221;-53
2023/06/20 05:03:19;;;;;;;5.17;4.57;;;;;23.90;100089.00;;;;2085194;28;20209;-53
2023/06/20 05:04:20;;;;;;;5.17;3.73;;;;;23.90;100094.00;;;;2084650;28;20216;-53
2023/06/20 05:05:20;;;;;;;4.87;4.37;;;;;23.90;100092.00;;;;2073308;28;20295;-53
2023/06/20 05:06:20;;;;;;;4.80;4.30;;;;;23.90;100095.00;;;;2075750;28;20217;-53